createdAt,value
2023-05-22T00:01:47.516Z,2.36
2023-05-22T00:04:16.714Z,2.40
2023-05-22T00:06:43.392Z,2.28
2023-05-22T00:09:09.867Z,2.48
2023-05-22T00:11:36.482Z,2.37
2023-05-22T00:14:03.343Z,2.52
2023-05-22T00:16:29.809Z,2.44
2023-05-22T00:18:59.728Z,2.55
2023-05-22T00:21:26.237Z,3.03
2023-05-22T00:23:55.915Z,4.62
2023-05-22T00:26:22.400Z,4.50
2023-05-22T00:28:50.956Z,3.56
2023-05-22T00:31:20.459Z,2.69
2023-05-22T00:33:59.192Z,2.50
2023-05-22T00:36:25.945Z,2.65
2023-05-22T00:38:54.086Z,2.41
2023-05-22T00:44:04.357Z,2.75
2023-05-22T00:46:30.877Z,2.62
2023-05-22T00:48:59.490Z,2.70
2023-05-22T00:51:26.104Z,2.54
2023-05-22T00:53:52.764Z,2.97
2023-05-22T00:56:23.420Z,3.52
2023-05-22T00:58:52.818Z,3.75
2023-05-22T01:01:19.351Z,3.76
2023-05-22T01:03:47.200Z,3.57
2023-05-22T01:06:13.971Z,2.97
2023-05-22T01:08:41.760Z,2.78
2023-05-22T01:11:16.005Z,3.41
2023-05-22T01:13:42.788Z,6.98
2023-05-22T01:16:09.475Z,4.16
2023-05-22T01:18:36.087Z,3.83
2023-05-22T01:21:02.516Z,3.50
2023-05-22T01:23:29.234Z,5.03
2023-05-22T01:25:56.374Z,4.79
2023-05-22T01:28:23.028Z,3.90
2023-05-22T01:30:49.645Z,3.32
2023-05-22T01:33:16.690Z,3.28
2023-05-22T01:35:43.399Z,3.15
2023-05-22T01:38:13.816Z,2.90
2023-05-22T01:40:40.465Z,3.06
2023-05-22T01:43:07.054Z,3.09
2023-05-22T01:45:33.626Z,3.04
2023-05-22T01:50:47.685Z,2.80
2023-05-22T01:53:16.880Z,3.00
2023-05-22T01:56:05.953Z,3.15
2023-05-22T01:58:30.635Z,3.25
2023-05-22T02:01:07.339Z,3.27
2023-05-22T02:03:35.162Z,3.00
2023-05-22T02:06:04.761Z,2.99
2023-05-22T02:08:31.395Z,3.24
2023-05-22T02:11:06.066Z,3.14
2023-05-22T02:13:35.365Z,3.27
2023-05-22T02:16:02.013Z,3.25
2023-05-22T02:18:29.138Z,3.49
2023-05-22T02:21:05.060Z,3.34
2023-05-22T02:23:34.566Z,3.45
2023-05-22T02:26:01.801Z,3.37
2023-05-22T02:28:28.221Z,3.51
2023-05-22T02:30:54.792Z,3.45
2023-05-22T02:33:24.594Z,3.48
2023-05-22T02:35:51.021Z,3.49
2023-05-22T02:38:18.736Z,3.46
2023-05-22T02:40:45.237Z,3.48
2023-05-22T02:43:11.823Z,3.63
2023-05-22T02:45:40.622Z,3.45
2023-05-22T02:48:07.526Z,3.56
2023-05-22T02:50:36.520Z,3.58
2023-05-22T02:53:04.228Z,3.35
2023-05-22T02:55:31.255Z,3.48
2023-05-22T02:58:09.818Z,3.60
2023-05-22T03:00:38.168Z,3.29
2023-05-22T03:03:05.260Z,3.57
2023-05-22T03:05:32.996Z,3.64
2023-05-22T03:07:59.473Z,3.58
2023-05-22T03:10:26.009Z,3.55
2023-05-22T03:12:52.546Z,3.55
2023-05-22T03:15:19.224Z,3.28
2023-05-22T03:20:26.961Z,3.36
2023-05-22T03:22:55.070Z,3.34
2023-05-22T03:25:32.644Z,3.68
2023-05-22T03:27:59.354Z,3.41
2023-05-22T03:30:26.586Z,3.68
2023-05-22T03:32:53.636Z,3.27
2023-05-22T03:35:20.234Z,3.17
2023-05-22T03:37:49.746Z,3.40
2023-05-22T03:40:18.635Z,3.34
2023-05-22T03:42:45.341Z,3.59
2023-05-22T03:45:11.904Z,3.46
2023-05-22T03:47:46.035Z,3.30
2023-05-22T04:21:32.488Z,3.14
2023-05-22T04:24:11.848Z,3.30
2023-05-22T04:26:41.005Z,3.62
2023-05-22T04:29:19.991Z,3.65
2023-05-22T04:37:28.111Z,3.45
2023-05-22T04:39:54.809Z,3.61
2023-05-22T04:42:21.339Z,3.54
2023-05-22T04:44:49.390Z,4.17
2023-05-22T04:47:21.730Z,4.41
2023-05-22T04:53:00.878Z,4.98
2023-05-22T04:58:32.957Z,19.57
2023-05-22T05:01:04.096Z,12.37
2023-05-22T05:03:31.610Z,8.18
2023-05-22T05:05:58.292Z,5.65
2023-05-22T05:08:29.942Z,5.74
2023-05-22T05:13:37.195Z,5.20
2023-05-22T05:21:41.676Z,4.84
2023-05-22T05:24:09.814Z,4.73
2023-05-22T05:26:36.547Z,4.60
2023-05-22T05:37:08.763Z,8.79
2023-05-22T05:39:35.250Z,7.67
2023-05-22T05:42:12.634Z,5.23
2023-05-22T05:44:39.230Z,4.94
2023-05-22T05:47:08.084Z,4.63
2023-05-22T05:49:43.207Z,4.86
2023-05-22T05:52:14.129Z,5.08
2023-05-22T05:54:41.783Z,4.66
2023-05-22T05:57:08.221Z,4.86
2023-05-22T05:59:34.762Z,4.65
2023-05-22T06:02:01.318Z,4.64
2023-05-22T06:04:27.777Z,4.76
2023-05-22T06:07:20.068Z,4.23
2023-05-22T06:09:46.260Z,4.04
2023-05-22T06:12:16.924Z,3.85
2023-05-22T06:17:34.903Z,3.83
2023-05-22T06:22:51.413Z,4.41
2023-05-22T06:25:18.981Z,4.05
2023-05-22T06:28:34.500Z,3.95
2023-05-22T06:33:25.638Z,4.01
2023-05-22T06:35:53.154Z,3.84
2023-05-22T06:38:20.024Z,4.38
2023-05-22T06:43:36.348Z,4.10
2023-05-22T06:46:02.784Z,3.66
2023-05-22T06:48:29.284Z,3.78
2023-05-22T06:50:55.731Z,3.66
2023-05-22T06:53:22.123Z,3.97
2023-05-22T06:55:48.487Z,3.85
2023-05-22T06:58:14.892Z,4.53
2023-05-22T07:00:41.638Z,4.04
2023-05-22T07:03:08.261Z,3.61
2023-05-22T07:05:34.834Z,4.50
2023-05-22T07:08:01.325Z,3.79
2023-05-22T07:10:29.935Z,4.49
2023-05-22T07:12:56.354Z,8.98
2023-05-22T07:15:22.763Z,4.49
2023-05-22T07:17:49.386Z,5.66
2023-05-22T07:20:15.889Z,7.14
2023-05-22T07:22:42.328Z,7.91
2023-05-22T07:25:08.770Z,4.59
2023-05-22T07:27:35.163Z,3.97
2023-05-22T07:30:01.585Z,3.78
2023-05-22T07:32:27.999Z,4.17
2023-05-22T07:34:54.456Z,4.01
2023-05-22T07:37:21.033Z,4.09
2023-05-22T07:39:47.468Z,4.40
2023-05-22T07:42:14.269Z,4.16
2023-05-22T07:44:41.053Z,4.51
2023-05-22T07:47:07.795Z,4.67
2023-05-22T07:49:34.319Z,4.43
2023-05-22T07:52:00.762Z,4.70
2023-05-22T07:54:27.301Z,4.89
2023-05-22T07:56:54.565Z,5.23
2023-05-22T07:59:21.039Z,5.31
2023-05-22T08:01:47.400Z,4.99
2023-05-22T08:04:16.492Z,5.49
2023-05-22T08:06:43.715Z,5.68
2023-05-22T08:09:10.144Z,5.56
2023-05-22T08:11:39.873Z,5.50
2023-05-22T08:14:06.481Z,5.10
2023-05-22T08:16:32.871Z,5.57
2023-05-22T08:18:59.651Z,5.50
2023-05-22T08:21:26.086Z,5.16
2023-05-22T08:23:52.642Z,5.82
2023-05-22T08:26:21.384Z,5.57
2023-05-22T08:28:47.762Z,5.60
2023-05-22T08:31:15.407Z,5.34
2023-05-22T08:33:43.123Z,5.70
2023-05-22T08:36:09.752Z,6.16
2023-05-22T08:38:36.209Z,6.29
2023-05-22T08:41:07.277Z,5.85
2023-05-22T08:43:33.708Z,5.91
2023-05-22T08:46:00.557Z,5.57
2023-05-22T08:48:27.523Z,5.91
2023-05-22T08:50:53.974Z,6.07
2023-05-22T08:53:20.399Z,6.75
2023-05-22T08:55:46.809Z,6.23
2023-05-22T08:58:13.364Z,5.54
2023-05-22T09:00:40.357Z,5.44
2023-05-22T09:03:07.200Z,5.66
2023-05-22T09:05:33.704Z,5.34
2023-05-22T09:08:08.336Z,5.25
2023-05-22T09:10:42.954Z,5.43
2023-05-22T09:13:09.462Z,5.35
2023-05-22T09:15:36.423Z,6.12
2023-05-22T09:18:02.872Z,6.01
2023-05-22T09:20:29.355Z,5.38
2023-05-22T09:22:55.965Z,5.13
2023-05-22T09:25:22.555Z,5.89
2023-05-22T09:27:49.377Z,5.91
2023-05-22T09:30:15.756Z,5.42
2023-05-22T09:32:43.460Z,5.49
2023-05-22T09:35:09.930Z,5.90
2023-05-22T09:37:36.857Z,5.75
2023-05-22T09:40:03.310Z,6.12
2023-05-22T09:42:31.809Z,6.22
2023-05-22T09:44:58.239Z,6.29
2023-05-22T09:47:25.267Z,6.30
2023-05-22T09:49:51.682Z,6.21
2023-05-22T09:52:21.218Z,6.16
2023-05-22T09:54:47.661Z,6.26
2023-05-22T09:57:14.065Z,6.27
2023-05-22T09:59:40.504Z,6.36
2023-05-22T10:02:13.967Z,6.14
2023-05-22T10:04:40.477Z,6.00
2023-05-22T10:07:07.180Z,6.55
2023-05-22T10:09:33.677Z,6.37
2023-05-22T10:12:00.221Z,6.71
2023-05-22T10:14:27.820Z,6.83
2023-05-22T10:16:55.504Z,6.83
2023-05-22T10:19:21.943Z,6.90
2023-05-22T10:21:49.614Z,5.92
2023-05-22T10:24:18.325Z,6.11
2023-05-22T10:26:45.031Z,5.84
2023-05-22T10:29:11.613Z,6.16
2023-05-22T10:31:40.091Z,5.76
2023-05-22T10:34:07.355Z,5.56
2023-05-22T10:36:34.181Z,4.69
2023-05-22T10:39:01.638Z,5.30
2023-05-22T10:41:28.480Z,5.34
2023-05-22T10:43:55.914Z,4.96
2023-05-22T10:46:22.348Z,5.02
2023-05-22T10:48:48.817Z,4.44
2023-05-22T10:51:15.241Z,4.43
2023-05-22T10:53:48.927Z,4.32
2023-05-22T10:56:17.609Z,4.38
2023-05-22T10:58:44.582Z,3.97
2023-05-22T11:01:11.009Z,3.86
2023-05-22T11:03:37.482Z,3.69
2023-05-22T11:06:04.999Z,3.84
2023-05-22T11:08:31.617Z,3.37
2023-05-22T11:11:05.468Z,3.30
2023-05-22T11:13:32.373Z,3.27
2023-05-22T11:15:58.985Z,3.38
2023-05-22T11:18:29.434Z,3.27
2023-05-22T11:20:56.023Z,3.22
2023-05-22T11:23:23.492Z,3.33
2023-05-22T11:25:50.082Z,3.17
2023-05-22T11:28:16.447Z,3.12
2023-05-22T11:30:42.877Z,2.97
2023-05-22T11:33:09.337Z,2.89
2023-05-22T11:35:38.052Z,2.60
2023-05-22T11:38:04.534Z,2.99
2023-05-22T11:40:31.018Z,2.76
2023-05-22T11:42:58.480Z,2.32
2023-05-22T11:45:25.106Z,2.17
2023-05-22T11:47:51.983Z,2.19
2023-05-22T11:50:29.169Z,2.10
2023-05-22T11:53:00.424Z,3.05
2023-05-22T11:55:29.316Z,2.99
2023-05-22T11:57:55.713Z,2.89
2023-05-22T12:00:23.167Z,2.98
2023-05-22T12:02:52.077Z,2.87
2023-05-22T12:05:22.034Z,2.93
2023-05-22T12:07:48.429Z,3.14
2023-05-22T12:10:15.196Z,4.16
2023-05-22T12:12:41.610Z,5.69
2023-05-22T12:15:08.066Z,7.26
2023-05-22T12:17:34.532Z,5.85
2023-05-22T12:20:01.083Z,4.07
2023-05-22T12:22:27.450Z,3.21
2023-05-22T12:24:53.878Z,2.88
2023-05-22T12:27:21.573Z,4.96
2023-05-22T12:29:47.959Z,4.48
2023-05-22T12:32:14.739Z,3.58
2023-05-22T12:34:41.213Z,4.90
2023-05-22T12:37:07.682Z,5.32
2023-05-22T12:39:35.264Z,3.55
2023-05-22T12:42:01.696Z,3.47
2023-05-22T12:44:28.258Z,8.83
2023-05-22T12:46:55.005Z,6.42
2023-05-22T12:49:22.535Z,3.69
2023-05-22T12:51:49.005Z,3.68
2023-05-22T12:54:15.440Z,10.63
2023-05-22T12:56:41.889Z,12.35
2023-05-22T12:59:11.628Z,13.09
2023-05-22T13:01:38.036Z,9.20
2023-05-22T13:04:04.628Z,5.25
2023-05-22T13:06:31.129Z,6.35
2023-05-22T13:08:59.619Z,7.33
2023-05-22T13:11:26.012Z,13.22
2023-05-22T13:13:52.438Z,7.52
2023-05-22T13:16:18.834Z,4.37
2023-05-22T13:18:45.292Z,4.16
2023-05-22T13:21:12.052Z,4.40
2023-05-22T13:23:46.090Z,5.00
2023-05-22T13:26:12.503Z,5.61
2023-05-22T13:28:39.313Z,9.87
2023-05-22T13:31:05.782Z,8.84
2023-05-22T13:33:32.202Z,4.69
2023-05-22T13:36:00.910Z,4.41
2023-05-22T13:38:27.383Z,4.51
2023-05-22T13:40:53.774Z,4.38
2023-05-22T13:43:20.207Z,4.42
2023-05-22T13:45:46.738Z,7.55
2023-05-22T13:48:13.789Z,11.70
2023-05-22T13:50:40.300Z,5.15
2023-05-22T13:53:06.790Z,5.56
2023-05-22T13:55:33.286Z,5.32
2023-05-22T13:57:59.884Z,5.73
2023-05-22T14:00:26.704Z,5.18
2023-05-22T14:02:53.350Z,4.00
2023-05-22T14:05:20.833Z,3.96
2023-05-22T14:07:47.619Z,4.01
2023-05-22T14:10:14.383Z,3.99
2023-05-22T14:12:41.052Z,3.96
2023-05-22T14:15:07.436Z,5.45
2023-05-22T14:17:33.816Z,4.03
2023-05-22T14:20:00.395Z,4.23
2023-05-22T14:22:26.867Z,4.63
2023-05-22T14:24:53.508Z,4.86
2023-05-22T14:27:19.884Z,5.67
2023-05-22T14:29:48.586Z,11.93
2023-05-22T14:32:15.278Z,11.09
2023-05-22T14:34:42.927Z,6.92
2023-05-22T14:37:09.963Z,4.60
2023-05-22T14:39:36.400Z,4.24
2023-05-22T14:42:02.870Z,3.95
2023-05-22T14:44:31.910Z,6.93
2023-05-22T14:46:58.281Z,8.56
2023-05-22T14:49:25.158Z,4.62
2023-05-22T14:51:52.025Z,6.45
2023-05-22T14:54:18.398Z,8.37
2023-05-22T14:56:44.814Z,4.83
2023-05-22T14:59:11.231Z,4.76
2023-05-22T15:01:37.708Z,4.79
2023-05-22T15:04:04.217Z,4.48
2023-05-22T15:06:30.603Z,4.33
2023-05-22T15:08:57.740Z,4.50
2023-05-22T15:11:24.162Z,4.35
2023-05-22T15:13:50.593Z,4.03
2023-05-22T15:16:17.465Z,4.36
2023-05-22T15:18:46.359Z,4.46
2023-05-22T15:21:13.199Z,3.96
2023-05-22T15:23:41.910Z,3.99
2023-05-22T15:26:08.385Z,3.94
2023-05-22T15:28:34.916Z,4.03
2023-05-22T15:31:01.303Z,4.09
2023-05-22T15:33:28.177Z,3.87
2023-05-22T15:35:56.625Z,3.97
2023-05-22T15:38:23.225Z,3.66
2023-05-22T15:40:49.675Z,3.74
2023-05-22T15:43:16.063Z,3.74
2023-05-22T15:45:42.615Z,3.80
2023-05-22T15:48:09.440Z,3.81
2023-05-22T15:50:35.901Z,3.80
2023-05-22T15:53:02.341Z,3.69
2023-05-22T15:55:28.783Z,3.83
2023-05-22T15:57:55.166Z,3.84
2023-05-22T16:00:21.806Z,3.55
2023-05-22T16:02:48.307Z,3.59
2023-05-22T16:05:14.941Z,3.45
2023-05-22T16:07:41.358Z,3.65
2023-05-22T16:10:07.786Z,3.77
2023-05-22T16:12:36.448Z,3.63
2023-05-22T16:15:04.515Z,3.55
2023-05-22T16:17:34.662Z,3.69
2023-05-22T16:20:01.437Z,3.78
2023-05-22T16:22:40.055Z,3.50
2023-05-22T16:25:13.460Z,3.50
2023-05-22T16:27:39.905Z,3.68
2023-05-22T16:30:08.608Z,3.84
2023-05-22T16:32:35.416Z,3.68
2023-05-22T16:35:01.860Z,4.02
2023-05-22T16:37:28.277Z,4.02
2023-05-22T16:39:55.055Z,4.01
2023-05-22T16:42:21.541Z,4.08
2023-05-22T16:44:47.932Z,4.34
2023-05-22T16:47:14.485Z,4.22
2023-05-22T16:52:21.278Z,4.24
2023-05-22T16:54:47.770Z,4.05
2023-05-22T16:57:14.155Z,3.83
2023-05-22T16:59:43.740Z,4.16
2023-05-22T17:02:10.332Z,4.16
2023-05-22T17:04:36.702Z,4.20
2023-05-22T17:07:03.743Z,4.48
2023-05-22T17:09:31.141Z,4.74
2023-05-22T17:11:57.584Z,4.35
2023-05-22T17:14:24.144Z,4.57
2023-05-22T17:16:51.093Z,5.06
2023-05-22T17:19:17.656Z,4.78
2023-05-22T17:21:44.339Z,4.78
2023-05-22T17:24:12.660Z,4.42
2023-05-22T17:26:41.654Z,4.75
2023-05-22T17:29:08.121Z,4.26
2023-05-22T17:31:38.259Z,4.27
2023-05-22T17:34:05.617Z,4.47
2023-05-22T17:36:32.247Z,4.38
2023-05-22T17:38:59.698Z,4.72
2023-05-22T17:41:26.096Z,4.60
2023-05-22T17:43:52.789Z,4.39
2023-05-22T17:46:19.253Z,4.61
2023-05-22T17:48:45.718Z,4.58
2023-05-22T17:51:12.150Z,4.77
2023-05-22T17:53:40.914Z,4.54
2023-05-22T17:56:07.523Z,4.74
2023-05-22T17:58:33.981Z,4.65
2023-05-22T18:01:00.911Z,4.59
2023-05-22T18:03:29.088Z,4.81
2023-05-22T18:05:55.583Z,4.54
2023-05-22T18:13:43.066Z,4.73
2023-05-22T18:16:11.972Z,4.74
2023-05-22T18:21:13.723Z,5.09
2023-05-22T18:23:40.155Z,5.27
2023-05-22T18:26:06.806Z,7.54
2023-05-22T18:28:33.229Z,7.45
2023-05-22T18:30:59.626Z,9.40
2023-05-22T18:33:26.054Z,9.16
2023-05-22T18:35:53.586Z,9.60
2023-05-22T18:38:19.980Z,7.73
2023-05-22T18:40:46.755Z,6.26
2023-05-22T18:43:13.198Z,6.27
2023-05-22T18:45:39.652Z,7.76
2023-05-22T18:48:06.186Z,7.62
2023-05-22T18:50:32.797Z,6.28
2023-05-22T18:52:59.168Z,4.99
2023-05-22T18:55:25.572Z,5.28
2023-05-22T18:57:52.080Z,5.39
2023-05-22T19:00:18.754Z,5.12
2023-05-22T19:02:45.160Z,5.23
2023-05-22T19:05:11.692Z,4.83
2023-05-22T19:07:38.345Z,5.32
2023-05-22T19:10:07.902Z,4.85
2023-05-22T19:12:34.803Z,5.06
2023-05-22T19:15:02.997Z,4.88
2023-05-22T19:17:29.400Z,5.04
2023-05-22T19:19:55.856Z,4.96
2023-05-22T19:22:22.360Z,5.23
2023-05-22T19:24:48.736Z,5.15
2023-05-22T19:27:15.208Z,4.72
2023-05-22T19:29:41.830Z,5.10
2023-05-22T19:32:08.209Z,5.16
2023-05-22T19:34:34.698Z,5.24
2023-05-22T19:37:01.252Z,5.08
2023-05-22T19:39:27.904Z,5.17
2023-05-22T19:41:54.340Z,4.94
2023-05-22T19:44:20.849Z,5.33
2023-05-22T19:46:47.348Z,5.05
2023-05-22T19:49:13.871Z,6.10
2023-05-22T19:51:40.397Z,6.56
2023-05-22T19:54:06.798Z,6.41
2023-05-22T19:56:33.159Z,5.97
2023-05-22T19:58:59.557Z,5.54
2023-05-22T20:01:26.373Z,5.76
2023-05-22T20:03:53.154Z,5.48
2023-05-22T20:06:19.781Z,5.18
2023-05-22T20:08:48.250Z,5.24
2023-05-22T20:11:14.813Z,5.37
2023-05-22T20:13:41.230Z,4.88
2023-05-22T20:16:07.945Z,4.94
2023-05-22T20:18:34.944Z,5.29
2023-05-22T20:21:01.574Z,5.26
2023-05-22T20:23:30.032Z,5.12
2023-05-22T20:25:57.518Z,5.17
2023-05-22T20:28:24.067Z,5.37
2023-05-22T20:30:52.943Z,5.51
2023-05-22T20:33:20.060Z,5.23
2023-05-22T20:35:48.575Z,5.42
2023-05-22T20:38:16.295Z,5.27
2023-05-22T20:40:42.731Z,5.33
2023-05-22T20:43:10.182Z,5.99
2023-05-22T20:45:36.600Z,6.11
2023-05-22T20:48:03.682Z,5.96
2023-05-22T20:50:30.151Z,5.61
2023-05-22T20:52:56.589Z,5.25
2023-05-22T20:55:23.016Z,5.31
2023-05-22T20:57:51.595Z,5.52
2023-05-22T21:00:18.128Z,5.48
2023-05-22T21:02:44.740Z,5.68
2023-05-22T21:05:11.216Z,5.50
2023-05-22T21:07:37.893Z,5.48
2023-05-22T21:10:07.773Z,5.06
2023-05-22T21:12:34.242Z,5.00
2023-05-22T21:15:00.684Z,4.93
2023-05-22T21:17:27.223Z,5.20
2023-05-22T21:19:55.955Z,4.93
2023-05-22T21:22:24.645Z,4.74
2023-05-22T21:24:51.094Z,4.89
2023-05-22T21:27:18.026Z,4.94
2023-05-22T21:29:44.948Z,5.05
2023-05-22T21:32:11.388Z,4.48
2023-05-22T21:34:37.930Z,4.92
2023-05-22T21:37:06.176Z,4.76
2023-05-22T21:39:33.092Z,4.55
2023-05-22T21:41:59.490Z,4.30
2023-05-22T21:44:28.617Z,4.32
2023-05-22T21:46:55.104Z,4.67
2023-05-22T21:49:21.727Z,4.45
2023-05-22T21:51:48.109Z,4.54
2023-05-22T21:54:14.529Z,4.31
2023-05-22T21:56:41.036Z,4.51
2023-05-22T21:59:07.444Z,4.57
2023-05-22T22:01:34.048Z,4.38
2023-05-22T22:04:00.553Z,4.32
2023-05-22T22:06:26.947Z,4.71
2023-05-22T22:08:53.361Z,4.38
2023-05-22T22:11:20.393Z,4.68
2023-05-22T22:13:47.130Z,4.83
2023-05-22T22:16:14.577Z,4.67
2023-05-22T22:18:41.078Z,4.56
2023-05-22T22:21:09.785Z,4.47
2023-05-22T22:23:36.245Z,4.74
2023-05-22T22:26:02.664Z,4.55
2023-05-22T22:28:30.105Z,4.32
2023-05-22T22:30:56.635Z,4.65
2023-05-22T22:33:23.087Z,4.88
2023-05-22T22:35:51.745Z,4.95
2023-05-22T22:38:19.572Z,4.67
2023-05-22T22:40:47.060Z,4.84
2023-05-22T22:43:13.865Z,4.88
2023-05-22T22:45:40.523Z,5.29
2023-05-22T22:48:07.221Z,4.98
2023-05-22T22:50:33.848Z,5.17
2023-05-22T22:53:00.275Z,4.92
2023-05-22T22:55:27.933Z,4.74
2023-05-22T22:57:54.636Z,4.82
2023-05-22T23:00:21.067Z,4.95
2023-05-22T23:02:47.515Z,5.08
2023-05-22T23:05:14.453Z,5.08
2023-05-22T23:07:41.047Z,4.90
2023-05-22T23:10:07.664Z,4.93
2023-05-22T23:12:34.151Z,5.21
2023-05-22T23:15:01.020Z,4.93
2023-05-22T23:17:27.545Z,4.98
2023-05-22T23:19:53.988Z,4.70
2023-05-22T23:22:20.403Z,5.07
2023-05-22T23:24:46.761Z,5.01
2023-05-22T23:27:13.686Z,5.11
2023-05-22T23:29:40.114Z,4.94
2023-05-22T23:32:06.971Z,4.82
2023-05-22T23:34:34.079Z,4.85
2023-05-22T23:37:00.457Z,4.78
2023-05-22T23:39:28.028Z,5.21
2023-05-22T23:41:55.478Z,5.15
2023-05-22T23:44:21.918Z,5.08
2023-05-22T23:46:48.486Z,4.91
2023-05-22T23:49:14.862Z,5.09
2023-05-22T23:51:41.563Z,5.18
2023-05-22T23:54:08.989Z,5.25
2023-05-22T23:56:35.423Z,5.31
2023-05-22T23:59:03.273Z,5.36
